General Aviation Weather

Text Reports

Enter one or more of the following location identifiers separated by a space:

Zip Code, Four-Character ICAO or Three-Character IATA airport codes.

METAR - Aviation Routine Weather Report
KAKH - Gastonia, North Carolina
Updated at 2:54 AM GMT on July 24, 2016 (10:54 PM EDT):
METAR KAKH 240254Z AUTO 00000KT 10SM CLR 25/21 A3002 RMK AO2 SLP155 T02500211 53014 TSNO
TAF - Terminal Area Forecast
KAKH - Gastonia, North Carolina
Updated at 2:54 AM GMT on July 24, 2016 (10:54 PM EDT):
No TAF is currently available for this location.
Decoded:
No decoded TAF is available.
PIREP - Pilot Weather Report
KAKH - Gastonia, North Carolina
Updated at 2:54 AM GMT on July 24, 2016 (10:54 PM EDT):
No PIREP is currently available for this location.
AIRMET - Airmens Meteorological Information
KAKH - Gastonia, North Carolina
Updated at 2:54 AM GMT on July 24, 2016 (10:54 PM EDT):
No AIRMET is currently available for this location.
SIGMET - Significant Meteorological Information
KAKH - Gastonia, North Carolina
Updated at 2:54 AM GMT on July 24, 2016 (10:54 PM EDT):
No SIGMET is currently available for this location.
NOTAM - Notice to Airmen
KAKH - Gastonia, North Carolina
Updated at 2:54 AM GMT on July 24, 2016 (10:54 PM EDT):
No NOTAM is currently available for this location.
Forecast Area
KAKH - Gastonia, North Carolina
Updated at 2:54 AM GMT on July 24, 2016 (10:54 PM EDT):
No NOTAM is currently available for this location.
Aviation Weather Maps